sensor_id;sensor_type;location;lat;lon;timestamp;pressure;altitude;pressure_sealevel;temperature;humidity
33286;BME280;19656;50.096;20.014;2023-04-26T00:00:07;98357.27;;;10.54;56.29
33286;BME280;19656;50.096;20.014;2023-04-26T00:05:32;98361.86;;;10.55;56.23
33286;BME280;19656;50.096;20.014;2023-04-26T00:10:37;98372.60;;;10.53;56.22
33286;BME280;19656;50.096;20.014;2023-04-26T00:15:42;98380.88;;;10.54;56.11
33286;BME280;19656;50.096;20.014;2023-04-26T00:20:46;98377.14;;;10.54;55.92
33286;BME280;19656;50.096;20.014;2023-04-26T00:25:49;98379.00;;;10.53;55.58
33286;BME280;19656;50.096;20.014;2023-04-26T00:30:52;98391.04;;;10.51;55.46
33286;BME280;19656;50.096;20.014;2023-04-26T00:35:56;98389.66;;;10.53;55.52
33286;BME280;19656;50.096;20.014;2023-04-26T00:40:59;98392.81;;;10.54;55.36
33286;BME280;19656;50.096;20.014;2023-04-26T00:46:04;98393.68;;;10.51;55.12
33286;BME280;19656;50.096;20.014;2023-04-26T00:51:08;98395.98;;;10.46;54.75
33286;BME280;19656;50.096;20.014;2023-04-26T00:56:11;98394.59;;;10.46;54.70
33286;BME280;19656;50.096;20.014;2023-04-26T01:01:15;98391.30;;;10.48;54.09
33286;BME280;19656;50.096;20.014;2023-04-26T01:06:21;98394.36;;;10.44;53.42
33286;BME280;19656;50.096;20.014;2023-04-26T01:11:24;98392.18;;;10.38;52.81
33286;BME280;19656;50.096;20.014;2023-04-26T01:16:29;98402.48;;;10.30;52.39
33286;BME280;19656;50.096;20.014;2023-04-26T01:21:33;98414.42;;;10.29;52.41
33286;BME280;19656;50.096;20.014;2023-04-26T01:26:39;98417.90;;;10.19;52.29
33286;BME280;19656;50.096;20.014;2023-04-26T01:31:49;98429.57;;;10.12;52.26
33286;BME280;19656;50.096;20.014;2023-04-26T01:36:52;98431.71;;;9.99;51.48
33286;BME280;19656;50.096;20.014;2023-04-26T01:41:56;98434.52;;;9.89;51.20
33286;BME280;19656;50.096;20.014;2023-04-26T01:47:00;98439.81;;;9.87;50.55
33286;BME280;19656;50.096;20.014;2023-04-26T01:52:03;98443.89;;;9.85;50.38
33286;BME280;19656;50.096;20.014;2023-04-26T01:57:07;98445.39;;;9.84;50.15
33286;BME280;19656;50.096;20.014;2023-04-26T02:02:10;98451.56;;;9.77;49.97
33286;BME280;19656;50.096;20.014;2023-04-26T02:07:14;98454.73;;;9.71;49.84
33286;BME280;19656;50.096;20.014;2023-04-26T02:12:20;98459.80;;;9.62;49.89
33286;BME280;19656;50.096;20.014;2023-04-26T02:17:24;98457.10;;;9.55;49.57
33286;BME280;19656;50.096;20.014;2023-04-26T02:22:28;98461.98;;;9.51;49.28
33286;BME280;19656;50.096;20.014;2023-04-26T02:27:32;98467.42;;;9.43;49.25
33286;BME280;19656;50.096;20.014;2023-04-26T02:32:35;98472.65;;;9.37;49.21
33286;BME280;19656;50.096;20.014;2023-04-26T02:37:38;98472.95;;;9.35;49.39
33286;BME280;19656;50.096;20.014;2023-04-26T02:42:42;98469.20;;;9.32;49.62
33286;BME280;19656;50.096;20.014;2023-04-26T02:47:46;98472.77;;;9.24;49.73
33286;BME280;19656;50.096;20.014;2023-04-26T02:52:50;98473.15;;;9.18;49.94
33286;BME280;19656;50.096;20.014;2023-04-26T02:57:54;98476.11;;;9.13;50.22
33286;BME280;19656;50.096;20.014;2023-04-26T03:03:00;98483.41;;;9.07;50.37
33286;BME280;19656;50.096;20.014;2023-04-26T03:08:05;98484.95;;;9.03;50.50
33286;BME280;19656;50.096;20.014;2023-04-26T03:13:09;98487.62;;;8.97;50.74
33286;BME280;19656;50.096;20.014;2023-04-26T03:18:13;98490.16;;;8.93;51.01
33286;BME280;19656;50.096;20.014;2023-04-26T03:23:17;98497.15;;;8.86;51.17
33286;BME280;19656;50.096;20.014;2023-04-26T03:28:20;98502.59;;;8.82;51.30
33286;BME280;19656;50.096;20.014;2023-04-26T03:33:24;98506.89;;;8.81;51.69
33286;BME280;19656;50.096;20.014;2023-04-26T03:38:27;98510.91;;;8.73;51.77
33286;BME280;19656;50.096;20.014;2023-04-26T03:43:31;98520.17;;;8.69;51.98
33286;BME280;19656;50.096;20.014;2023-04-26T03:48:35;98527.36;;;8.67;52.16
33286;BME280;19656;50.096;20.014;2023-04-26T03:53:38;98530.65;;;8.62;52.33
33286;BME280;19656;50.096;20.014;2023-04-26T03:58:43;98534.42;;;8.59;52.46
33286;BME280;19656;50.096;20.014;2023-04-26T04:03:46;98539.40;;;8.56;52.82
33286;BME280;19656;50.096;20.014;2023-04-26T04:08:50;98547.83;;;8.57;52.82
33286;BME280;19656;50.096;20.014;2023-04-26T04:13:54;98548.77;;;8.53;52.90
33286;BME280;19656;50.096;20.014;2023-04-26T04:18:58;98554.00;;;8.45;52.96
33286;BME280;19656;50.096;20.014;2023-04-26T04:24:02;98557.15;;;8.40;53.09
33286;BME280;19656;50.096;20.014;2023-04-26T04:29:06;98560.77;;;8.39;53.22
33286;BME280;19656;50.096;20.014;2023-04-26T04:34:13;98571.32;;;8.36;53.23
33286;BME280;19656;50.096;20.014;2023-04-26T04:39:17;98576.72;;;8.35;53.30
33286;BME280;19656;50.096;20.014;2023-04-26T04:44:21;98583.28;;;8.34;53.25
33286;BME280;19656;50.096;20.014;2023-04-26T04:49:27;98586.48;;;8.34;53.24
33286;BME280;19656;50.096;20.014;2023-04-26T04:54:31;98591.05;;;8.31;53.01
33286;BME280;19656;50.096;20.014;2023-04-26T04:59:35;98593.52;;;8.25;53.04
33286;BME280;19656;50.096;20.014;2023-04-26T05:04:39;98595.23;;;8.23;53.66
33286;BME280;19656;50.096;20.014;2023-04-26T05:09:43;98600.42;;;8.16;53.09
33286;BME280;19656;50.096;20.014;2023-04-26T05:14:48;98605.38;;;8.13;53.76
33286;BME280;19656;50.096;20.014;2023-04-26T05:19:52;98609.17;;;8.15;52.94
33286;BME280;19656;50.096;20.014;2023-04-26T05:24:55;98616.25;;;8.18;52.88
33286;BME280;19656;50.096;20.014;2023-04-26T05:30:03;98618.21;;;8.23;52.72
33286;BME280;19656;50.096;20.014;2023-04-26T05:35:25;98622.75;;;8.21;52.63
33286;BME280;19656;50.096;20.014;2023-04-26T05:40:28;98627.39;;;8.20;52.72
33286;BME280;19656;50.096;20.014;2023-04-26T05:45:32;98630.63;;;8.22;52.58
33286;BME280;19656;50.096;20.014;2023-04-26T05:50:36;98626.09;;;8.25;52.47
33286;BME280;19656;50.096;20.014;2023-04-26T05:55:43;98629.70;;;8.29;52.19
33286;BME280;19656;50.096;20.014;2023-04-26T06:00:47;98624.83;;;8.37;51.41
33286;BME280;19656;50.096;20.014;2023-04-26T06:05:52;98627.82;;;8.55;51.05
33286;BME280;19656;50.096;20.014;2023-04-26T06:10:57;98628.71;;;8.72;51.08
33286;BME280;19656;50.096;20.014;2023-04-26T06:16:02;98625.60;;;8.86;50.29
33286;BME280;19656;50.096;20.014;2023-04-26T06:21:05;98628.25;;;8.94;49.61
33286;BME280;19656;50.096;20.014;2023-04-26T06:26:09;98631.00;;;9.07;49.25
33286;BME280;19656;50.096;20.014;2023-04-26T06:31:13;98635.65;;;9.18;48.74
33286;BME280;19656;50.096;20.014;2023-04-26T06:36:17;98626.83;;;9.23;48.18
33286;BME280;19656;50.096;20.014;2023-04-26T06:41:21;98623.37;;;9.33;48.09
33286;BME280;19656;50.096;20.014;2023-04-26T06:46:24;98625.23;;;9.42;47.83
33286;BME280;19656;50.096;20.014;2023-04-26T06:51:28;98631.27;;;9.53;47.71
33286;BME280;19656;50.096;20.014;2023-04-26T06:56:33;98638.77;;;9.66;47.12
33286;BME280;19656;50.096;20.014;2023-04-26T07:01:37;98644.81;;;9.71;46.64
33286;BME280;19656;50.096;20.014;2023-04-26T07:06:41;98644.96;;;9.74;46.70
33286;BME280;19656;50.096;20.014;2023-04-26T07:11:45;98647.58;;;9.80;46.23
33286;BME280;19656;50.096;20.014;2023-04-26T07:16:49;98648.75;;;9.84;45.68
33286;BME280;19656;50.096;20.014;2023-04-26T07:21:53;98646.24;;;9.92;45.77
33286;BME280;19656;50.096;20.014;2023-04-26T07:26:56;98648.27;;;10.10;44.66
33286;BME280;19656;50.096;20.014;2023-04-26T07:31:59;98640.66;;;10.15;44.18
33286;BME280;19656;50.096;20.014;2023-04-26T07:37:03;98645.70;;;10.22;43.90
33286;BME280;19656;50.096;20.014;2023-04-26T07:42:07;98650.71;;;10.22;43.40
33286;BME280;19656;50.096;20.014;2023-04-26T07:47:11;98651.47;;;10.18;42.21
33286;BME280;19656;50.096;20.014;2023-04-26T07:52:15;98660.15;;;10.18;41.77
33286;BME280;19656;50.096;20.014;2023-04-26T07:57:19;98664.59;;;10.26;41.85
33286;BME280;19656;50.096;20.014;2023-04-26T08:02:22;98663.71;;;10.45;41.81
33286;BME280;19656;50.096;20.014;2023-04-26T08:07:45;98665.67;;;10.53;41.12
33286;BME280;19656;50.096;20.014;2023-04-26T08:12:49;98665.61;;;10.61;40.30
33286;BME280;19656;50.096;20.014;2023-04-26T08:17:52;98668.60;;;10.62;40.72
33286;BME280;19656;50.096;20.014;2023-04-26T08:22:56;98671.91;;;10.68;40.15
33286;BME280;19656;50.096;20.014;2023-04-26T08:27:59;98675.12;;;10.76;39.53
33286;BME280;19656;50.096;20.014;2023-04-26T08:33:04;98670.77;;;10.82;39.37
33286;BME280;19656;50.096;20.014;2023-04-26T08:38:07;98670.19;;;10.82;39.01
33286;BME280;19656;50.096;20.014;2023-04-26T08:43:14;98671.30;;;10.90;39.15
33286;BME280;19656;50.096;20.014;2023-04-26T08:48:19;98674.48;;;10.92;38.96
33286;BME280;19656;50.096;20.014;2023-04-26T08:53:24;98667.61;;;10.94;39.44
33286;BME280;19656;50.096;20.014;2023-04-26T08:58:28;98668.15;;;10.97;39.34
33286;BME280;19656;50.096;20.014;2023-04-26T09:03:31;98663.02;;;11.04;39.06
33286;BME280;19656;50.096;20.014;2023-04-26T09:08:38;98662.87;;;11.11;38.63
33286;BME280;19656;50.096;20.014;2023-04-26T09:13:43;98674.16;;;11.20;38.90
33286;BME280;19656;50.096;20.014;2023-04-26T09:18:49;98676.21;;;11.13;38.64
33286;BME280;19656;50.096;20.014;2023-04-26T09:24:01;98682.01;;;11.16;38.84
33286;BME280;19656;50.096;20.014;2023-04-26T09:29:15;98696.33;;;11.18;38.68
33286;BME280;19656;50.096;20.014;2023-04-26T09:34:19;98701.44;;;10.95;40.63
33286;BME280;19656;50.096;20.014;2023-04-26T09:39:34;98691.45;;;10.85;41.50
33286;BME280;19656;50.096;20.014;2023-04-26T09:44:39;98686.45;;;11.04;41.87
33286;BME280;19656;50.096;20.014;2023-04-26T09:49:48;98703.64;;;11.02;42.56
33286;BME280;19656;50.096;20.014;2023-04-26T09:54:53;98713.49;;;10.87;43.31
33286;BME280;19656;50.096;20.014;2023-04-26T09:59:56;98701.55;;;10.75;42.34
33286;BME280;19656;50.096;20.014;2023-04-26T10:05:02;98703.30;;;10.81;40.72
33286;BME280;19656;50.096;20.014;2023-04-26T10:10:07;98705.63;;;10.81;40.80
33286;BME280;19656;50.096;20.014;2023-04-26T10:15:11;98695.23;;;10.82;41.59
33286;BME280;19656;50.096;20.014;2023-04-26T10:20:16;98692.84;;;10.91;40.47
33286;BME280;19656;50.096;20.014;2023-04-26T10:25:34;98683.98;;;11.08;39.96
33286;BME280;19656;50.096;20.014;2023-04-26T10:30:58;98676.73;;;11.51;39.57
33286;BME280;19656;50.096;20.014;2023-04-26T10:36:12;98675.48;;;11.95;39.02
33286;BME280;19656;50.096;20.014;2023-04-26T10:41:36;98682.00;;;11.94;37.95
33286;BME280;19656;50.096;20.014;2023-04-26T10:46:40;98684.69;;;11.84;37.16
33286;BME280;19656;50.096;20.014;2023-04-26T10:52:11;98699.58;;;12.06;37.40
33286;BME280;19656;50.096;20.014;2023-04-26T10:57:15;98705.07;;;12.09;38.58
33286;BME280;19656;50.096;20.014;2023-04-26T11:08:24;98698.31;;;12.47;39.17
33286;BME280;19656;50.096;20.014;2023-04-26T11:13:42;98691.21;;;13.03;37.85
33286;BME280;19656;50.096;20.014;2023-04-26T11:18:47;98695.25;;;13.20;35.19
33286;BME280;19656;50.096;20.014;2023-04-26T11:23:53;98697.30;;;13.07;33.95
33286;BME280;19656;50.096;20.014;2023-04-26T11:28:57;98692.83;;;13.07;34.22
33286;BME280;19656;50.096;20.014;2023-04-26T11:34:04;98700.35;;;12.98;34.09
33286;BME280;19656;50.096;20.014;2023-04-26T11:39:07;98712.58;;;12.66;35.44
33286;BME280;19656;50.096;20.014;2023-04-26T11:44:11;98712.15;;;12.59;37.18
33286;BME280;19656;50.096;20.014;2023-04-26T11:49:15;98717.77;;;12.84;38.73
33286;BME280;19656;50.096;20.014;2023-04-26T11:54:29;98713.52;;;13.41;38.02
33286;BME280;19656;50.096;20.014;2023-04-26T11:59:33;98723.08;;;13.80;36.09
33286;BME280;19656;50.096;20.014;2023-04-26T12:04:38;98733.95;;;13.35;36.84
33286;BME280;19656;50.096;20.014;2023-04-26T12:09:43;98744.15;;;12.83;38.42
33286;BME280;19656;50.096;20.014;2023-04-26T12:14:47;98737.34;;;12.66;39.27
33286;BME280;19656;50.096;20.014;2023-04-26T12:19:50;98723.45;;;13.12;38.64
33286;BME280;19656;50.096;20.014;2023-04-26T12:25:06;98720.67;;;13.70;37.17
33286;BME280;19656;50.096;20.014;2023-04-26T12:30:10;98721.67;;;14.00;34.45
33286;BME280;19656;50.096;20.014;2023-04-26T12:35:13;98726.92;;;13.63;33.62
33286;BME280;19656;50.096;20.014;2023-04-26T12:40:18;98734.20;;;13.27;35.73
33286;BME280;19656;50.096;20.014;2023-04-26T12:45:23;98747.69;;;13.02;38.41
33286;BME280;19656;50.096;20.014;2023-04-26T12:50:44;98739.64;;;13.05;39.16
33286;BME280;19656;50.096;20.014;2023-04-26T12:55:50;98734.30;;;13.65;38.68
33286;BME280;19656;50.096;20.014;2023-04-26T13:00:53;98736.11;;;14.07;36.02
33286;BME280;19656;50.096;20.014;2023-04-26T13:05:57;98736.35;;;13.88;34.68
33286;BME280;19656;50.096;20.014;2023-04-26T13:11:00;98739.63;;;13.70;33.70
33286;BME280;19656;50.096;20.014;2023-04-26T13:16:04;98745.64;;;13.83;32.67
33286;BME280;19656;50.096;20.014;2023-04-26T13:21:08;98750.01;;;13.76;31.72
33286;BME280;19656;50.096;20.014;2023-04-26T13:26:11;98751.48;;;13.80;32.32
33286;BME280;19656;50.096;20.014;2023-04-26T13:31:17;98751.52;;;13.75;32.50
33286;BME280;19656;50.096;20.014;2023-04-26T13:36:21;98750.61;;;13.82;32.78
33286;BME280;19656;50.096;20.014;2023-04-26T13:41:25;98754.67;;;14.20;31.31
33286;BME280;19656;50.096;20.014;2023-04-26T13:46:29;98756.05;;;14.27;31.32
33286;BME280;19656;50.096;20.014;2023-04-26T13:51:32;98763.32;;;14.32;31.72
33286;BME280;19656;50.096;20.014;2023-04-26T13:56:37;98757.65;;;14.68;33.09
33286;BME280;19656;50.096;20.014;2023-04-26T14:01:40;98754.30;;;15.08;31.64
33286;BME280;19656;50.096;20.014;2023-04-26T14:06:44;98766.70;;;14.75;30.98
33286;BME280;19656;50.096;20.014;2023-04-26T14:11:47;98773.45;;;14.37;31.91
33286;BME280;19656;50.096;20.014;2023-04-26T14:17:02;98781.03;;;13.96;31.80
33286;BME280;19656;50.096;20.014;2023-04-26T14:22:06;98779.30;;;13.73;31.42
33286;BME280;19656;50.096;20.014;2023-04-26T14:27:11;98770.48;;;13.69;31.18
33286;BME280;19656;50.096;20.014;2023-04-26T14:32:15;98772.98;;;13.56;31.15
33286;BME280;19656;50.096;20.014;2023-04-26T14:37:19;98774.06;;;13.49;30.48
33286;BME280;19656;50.096;20.014;2023-04-26T14:42:24;98775.89;;;13.51;30.05
33286;BME280;19656;50.096;20.014;2023-04-26T14:47:28;98777.14;;;13.43;29.95
33286;BME280;19656;50.096;20.014;2023-04-26T14:52:34;98789.35;;;13.26;30.16
33286;BME280;19656;50.096;20.014;2023-04-26T14:57:39;98795.76;;;13.07;30.11
33286;BME280;19656;50.096;20.014;2023-04-26T15:02:43;98797.63;;;12.90;30.27
33286;BME280;19656;50.096;20.014;2023-04-26T15:07:47;98794.77;;;12.83;29.70
33286;BME280;19656;50.096;20.014;2023-04-26T15:12:50;98797.61;;;12.71;29.74
33286;BME280;19656;50.096;20.014;2023-04-26T15:18:00;98808.52;;;12.56;30.09
33286;BME280;19656;50.096;20.014;2023-04-26T15:23:04;98815.05;;;12.40;31.06
33286;BME280;19656;50.096;20.014;2023-04-26T15:28:08;98815.17;;;12.38;31.60
33286;BME280;19656;50.096;20.014;2023-04-26T15:33:15;98810.49;;;12.37;31.38
33286;BME280;19656;50.096;20.014;2023-04-26T15:38:19;98816.52;;;12.24;30.69
33286;BME280;19656;50.096;20.014;2023-04-26T15:43:23;98827.66;;;12.08;31.37
33286;BME280;19656;50.096;20.014;2023-04-26T15:48:26;98841.09;;;11.86;32.69
33286;BME280;19656;50.096;20.014;2023-04-26T15:53:30;98849.88;;;11.73;33.34
33286;BME280;19656;50.096;20.014;2023-04-26T15:58:33;98852.80;;;11.59;33.35
33286;BME280;19656;50.096;20.014;2023-04-26T16:03:43;98854.95;;;11.61;33.54
33286;BME280;19656;50.096;20.014;2023-04-26T16:08:49;98845.45;;;12.03;33.37
33286;BME280;19656;50.096;20.014;2023-04-26T16:13:53;98843.10;;;12.48;32.79
33286;BME280;19656;50.096;20.014;2023-04-26T16:18:57;98838.27;;;13.01;31.93
33286;BME280;19656;50.096;20.014;2023-04-26T16:24:06;98838.11;;;13.01;31.53
33286;BME280;19656;50.096;20.014;2023-04-26T16:29:11;98837.55;;;12.73;31.64
33286;BME280;19656;50.096;20.014;2023-04-26T16:34:15;98845.17;;;12.51;32.22
33286;BME280;19656;50.096;20.014;2023-04-26T16:39:18;98845.66;;;12.32;32.45
33286;BME280;19656;50.096;20.014;2023-04-26T16:44:22;98852.20;;;12.21;33.10
33286;BME280;19656;50.096;20.014;2023-04-26T16:49:29;98862.63;;;12.06;33.73
33286;BME280;19656;50.096;20.014;2023-04-26T16:54:32;98873.04;;;11.88;34.06
33286;BME280;19656;50.096;20.014;2023-04-26T16:59:35;98893.48;;;11.69;35.06
33286;BME280;19656;50.096;20.014;2023-04-26T17:04:39;98892.41;;;11.43;36.70
33286;BME280;19656;50.096;20.014;2023-04-26T17:09:44;98900.45;;;11.11;37.59
33286;BME280;19656;50.096;20.014;2023-04-26T17:14:47;98903.98;;;10.95;37.26
33286;BME280;19656;50.096;20.014;2023-04-26T17:19:50;98902.59;;;10.86;37.40
33286;BME280;19656;50.096;20.014;2023-04-26T17:24:54;98911.55;;;10.80;37.52
33286;BME280;19656;50.096;20.014;2023-04-26T17:29:57;98915.27;;;10.74;37.99
33286;BME280;19656;50.096;20.014;2023-04-26T17:35:01;98918.64;;;10.75;38.02
33286;BME280;19656;50.096;20.014;2023-04-26T17:40:05;98919.16;;;10.72;37.88
33286;BME280;19656;50.096;20.014;2023-04-26T17:45:10;98924.29;;;10.67;38.16
33286;BME280;19656;50.096;20.014;2023-04-26T17:50:32;98935.94;;;10.62;39.51
33286;BME280;19656;50.096;20.014;2023-04-26T17:55:35;98934.01;;;10.59;39.20
33286;BME280;19656;50.096;20.014;2023-04-26T18:00:39;98944.92;;;10.49;39.28
33286;BME280;19656;50.096;20.014;2023-04-26T18:05:43;98951.77;;;10.47;39.56
33286;BME280;19656;50.096;20.014;2023-04-26T18:10:46;98953.92;;;10.44;39.78
33286;BME280;19656;50.096;20.014;2023-04-26T18:15:50;98957.62;;;10.42;40.00
33286;BME280;19656;50.096;20.014;2023-04-26T18:20:56;98962.81;;;10.38;40.31
33286;BME280;19656;50.096;20.014;2023-04-26T18:25:59;98970.98;;;10.38;40.20
33286;BME280;19656;50.096;20.014;2023-04-26T18:31:03;98971.12;;;10.38;40.30
33286;BME280;19656;50.096;20.014;2023-04-26T18:36:06;98977.64;;;10.33;40.68
33286;BME280;19656;50.096;20.014;2023-04-26T18:41:10;98986.40;;;10.23;41.26
33286;BME280;19656;50.096;20.014;2023-04-26T18:46:13;98991.47;;;10.16;41.75
33286;BME280;19656;50.096;20.014;2023-04-26T18:51:17;98994.39;;;10.08;42.00
33286;BME280;19656;50.096;20.014;2023-04-26T18:56:20;99000.88;;;10.06;43.31
33286;BME280;19656;50.096;20.014;2023-04-26T19:01:24;99001.73;;;10.25;41.95
33286;BME280;19656;50.096;20.014;2023-04-26T19:06:28;99004.56;;;10.25;41.10
33286;BME280;19656;50.096;20.014;2023-04-26T19:11:31;99012.04;;;10.21;41.16
33286;BME280;19656;50.096;20.014;2023-04-26T19:16:47;99017.52;;;10.07;41.41
33286;BME280;19656;50.096;20.014;2023-04-26T19:21:50;99016.95;;;9.99;41.50
33286;BME280;19656;50.096;20.014;2023-04-26T19:26:54;99020.21;;;9.94;41.68
33286;BME280;19656;50.096;20.014;2023-04-26T19:31:58;99025.13;;;9.89;41.88
33286;BME280;19656;50.096;20.014;2023-04-26T19:37:02;99025.73;;;9.88;43.19
33286;BME280;19656;50.096;20.014;2023-04-26T19:42:05;99027.54;;;10.02;43.03
33286;BME280;19656;50.096;20.014;2023-04-26T19:47:09;99027.20;;;9.96;42.43
33286;BME280;19656;50.096;20.014;2023-04-26T19:52:13;99026.35;;;9.84;42.51
33286;BME280;19656;50.096;20.014;2023-04-26T19:57:17;99026.20;;;9.77;42.71
33286;BME280;19656;50.096;20.014;2023-04-26T20:02:20;99028.73;;;9.74;42.80
33286;BME280;19656;50.096;20.014;2023-04-26T20:07:25;99036.39;;;9.76;43.31
33286;BME280;19656;50.096;20.014;2023-04-26T20:12:28;99039.67;;;9.74;43.54
33286;BME280;19656;50.096;20.014;2023-04-26T20:17:33;99038.95;;;9.71;43.33
33286;BME280;19656;50.096;20.014;2023-04-26T20:22:37;99040.08;;;9.67;43.36
33286;BME280;19656;50.096;20.014;2023-04-26T20:27:41;99042.08;;;9.57;43.50
33286;BME280;19656;50.096;20.014;2023-04-26T20:32:44;99044.70;;;9.45;43.78
33286;BME280;19656;50.096;20.014;2023-04-26T20:37:48;99046.71;;;9.35;44.28
33286;BME280;19656;50.096;20.014;2023-04-26T20:42:51;99046.75;;;9.28;44.54
33286;BME280;19656;50.096;20.014;2023-04-26T20:47:54;99046.15;;;9.23;44.68
33286;BME280;19656;50.096;20.014;2023-04-26T20:52:58;99051.19;;;9.18;44.92
33286;BME280;19656;50.096;20.014;2023-04-26T20:58:02;99054.92;;;9.15;45.04
33286;BME280;19656;50.096;20.014;2023-04-26T21:03:05;99056.17;;;9.09;45.04
33286;BME280;19656;50.096;20.014;2023-04-26T21:08:09;99059.09;;;8.97;45.15
33286;BME280;19656;50.096;20.014;2023-04-26T21:13:13;99063.81;;;8.95;45.34
33286;BME280;19656;50.096;20.014;2023-04-26T21:18:17;99065.92;;;8.96;45.51
33286;BME280;19656;50.096;20.014;2023-04-26T21:23:20;99067.27;;;8.96;45.56
33286;BME280;19656;50.096;20.014;2023-04-26T21:28:23;99074.43;;;8.92;45.59
33286;BME280;19656;50.096;20.014;2023-04-26T21:33:27;99074.77;;;8.86;45.67
33286;BME280;19656;50.096;20.014;2023-04-26T21:38:30;99081.28;;;8.80;46.00
33286;BME280;19656;50.096;20.014;2023-04-26T21:43:34;99082.97;;;8.71;46.19
33286;BME280;19656;50.096;20.014;2023-04-26T21:48:37;99087.30;;;8.67;46.34
33286;BME280;19656;50.096;20.014;2023-04-26T21:53:43;99093.08;;;8.61;46.44
33286;BME280;19656;50.096;20.014;2023-04-26T21:58:47;99095.88;;;8.55;46.57
33286;BME280;19656;50.096;20.014;2023-04-26T22:03:50;99101.69;;;8.56;46.64
33286;BME280;19656;50.096;20.014;2023-04-26T22:08:54;99107.33;;;8.56;46.62
33286;BME280;19656;50.096;20.014;2023-04-26T22:13:57;99110.63;;;8.50;46.78
33286;BME280;19656;50.096;20.014;2023-04-26T22:19:01;99111.16;;;8.40;47.04
33286;BME280;19656;50.096;20.014;2023-04-26T22:24:05;99116.37;;;8.35;47.12
33286;BME280;19656;50.096;20.014;2023-04-26T22:29:09;99120.96;;;8.27;47.40
33286;BME280;19656;50.096;20.014;2023-04-26T22:34:12;99125.35;;;8.21;47.57
33286;BME280;19656;50.096;20.014;2023-04-26T22:39:16;99128.27;;;8.12;47.78
33286;BME280;19656;50.096;20.014;2023-04-26T22:44:19;99134.64;;;8.09;47.93
33286;BME280;19656;50.096;20.014;2023-04-26T22:49:27;99133.70;;;8.03;47.98
33286;BME280;19656;50.096;20.014;2023-04-26T22:54:30;99136.73;;;7.99;48.34
33286;BME280;19656;50.096;20.014;2023-04-26T22:59:33;99138.89;;;7.91;48.60
33286;BME280;19656;50.096;20.014;2023-04-26T23:04:37;99140.61;;;7.88;48.58
33286;BME280;19656;50.096;20.014;2023-04-26T23:09:41;99145.27;;;7.87;48.87
33286;BME280;19656;50.096;20.014;2023-04-26T23:14:46;99147.55;;;7.84;49.24
33286;BME280;19656;50.096;20.014;2023-04-26T23:19:53;99149.30;;;7.80;49.09
33286;BME280;19656;50.096;20.014;2023-04-26T23:24:57;99154.26;;;7.76;49.33
33286;BME280;19656;50.096;20.014;2023-04-26T23:36:20;99151.59;;;7.70;49.43
33286;BME280;19656;50.096;20.014;2023-04-26T23:41:24;99153.60;;;7.68;49.58
33286;BME280;19656;50.096;20.014;2023-04-26T23:46:27;99154.34;;;7.67;49.60
33286;BME280;19656;50.096;20.014;2023-04-26T23:51:31;99152.44;;;7.67;49.58
33286;BME280;19656;50.096;20.014;2023-04-26T23:56:34;99152.54;;;7.64;49.63
